メインページ
METAR-TAF:

METAR-TAF

空港 :

Kindersley, サスカチュワン州, カナダ

緯度: 51-31N, 経度: 109-10W, 海抜: 694m

現時点の気象観測

当レポートは45分前の02:00(UTC)に作成
南/南東の風 5kt、南東から南/南西の間で変化する
気温 -9°C
湿度 92%
気圧 1011 hPa
視程: 24.1km
高度14000ftの雲は散在している
高度24000ftの千切れ雲あり

METAR: CYKY 070200Z 16005KT 140V210 15SM SCT140 BKN240 M09/M10 A2984 RMK AC4CI3 SLP152

時間: 20:45 (02:45 UTC)


TAF: 見つかりません

4,000以上の空港の気象観測と天気予報(METAR報とTAF報)

利用可能な観測所は地図上に黄色い丸と赤い丸で示す。

丸の上にカーソルを重ねると観測所名を参照できる。

次にクリックすると気象観測と天気予報を参照できる。

マップの切り替え:黒色「×」印の緑ボタンをクリックして拡大、「-」印の緑ボタンをクリックして縮小、緑色の三角印をクリックして隣りの地図に切り替え


METAR-TAF: